Aktualne dane pomiarowe

Uwaga, wersja testowa! Automatyczne pobieranie danych za pomocą narzędzi lub skryptów to umożliwiających jest zabronione.

Dane meteo z obszaru Polski uzyskane na podstawie depesz SYNOP pobieranych co godzinę z NWS. Najedź myszką na symbol przedstawiony w tabeli, aby uzyskać informacje co do jego znaczenia. Prosimy pamiętać, że to testowa wersja strony, która jeszcze nie jest ukończona. Stworzono również jest krótki FAQ dotyczący korzystania z tej podstrony Anomalie temperatury w chwili obecnej odniesione są do okresu referencyjnego 1951-2016. Okres ten będzie później zmieniony na 1981-2010. Kliknij ikonę aby pobrać plik CSV. Kliknij ikonę aby wygenerować mapę synoptyczną dla danego terminu.

Wybierz Datę:    

        

Zamość (12595)

Dane terminowe dla wybranej stacji. Kliknij datę, aby otrzymać dane z tego terminu dla wszystkich stacji.

TemperaturaZachmurzenieWiatrCiśnienieOpadyPogoda
 Data t td wb tx tn tg rh  Nt Nl Cl Cm Ch ws wd g1 g2 wx mslp ppp ch 24h 12h t ww ww w1 w2  
2019-06-19 23:00:00 18.0 17.2 17.4--- 9520.0--2wx---1012.8 986.7 -0.7---------
2019-06-19 22:00:00 18.2 17.0 17.3--- 9320.0--3wx---1013.1 987.0 -0.5---------
2019-06-19 21:00:00 18.0 17.0 17.3--- 9420.0--2wx--21013.3 987.2 -0.1---------
2019-06-19 20:00:00 18.3 17.1 17.4--- 9320.0--1wx--11013.5 987.4 0.0---------
2019-06-19 19:00:00 19.3 17.4 17.9--- 8920.0--2wx--21013.5 987.5 0.0---------
2019-06-19 18:00:00 20.9 18.5 19.2 27.3 18.5- 8620.0wxwxwxwxwx3wx--31013.1 987.3 -0.6- 12.012wx-w1w2--
2019-06-19 17:00:00 21.3 17.7 18.8--- 8020.0wxwxwxwxwx4wx--41013.2 987.4 -0.9---------
2019-06-19 16:00:00 22.9 17.6 19.3--- 7220.0wxwxwxwxwx5wx--51013.2 987.5 -1.6---------
2019-06-19 15:00:00 22.3 20.0 20.6--- 8720.0wxwxwxwxwx3wx---1013.6 987.9 -1.1---wx-w1w2--
2019-06-19 14:00:00 20.8 18.6 19.2--- 8720.0wxwxwxwx1wx--11014.2 988.3 -0.2---wx-w1w2--
2019-06-19 13:00:00 19.9 17.5 18.2--- 8620.0wxwxwx5wx--51015.1 989.1 0.0---wx-w1w2--
2019-06-19 12:00:00 19.5 18.2 18.5--- 928.0wxwxwx8wx131381015.0 989.0 -0.6- 2.06wx---
2019-06-19 11:00:00 25.8 17.4 20.2--- 6020.0wxwxwxwx4wx-1041013.9 988.5 -1.4---wx-w1--
2019-06-19 10:00:00 26.5 17.3 20.4--- 5720.0wxwxwxwxwx5wx--51014.5 989.1 -1.1---------
2019-06-19 09:00:00 25.4 17.6 20.2--- 6220.0wxwxwxwx5wx--51015.1 989.6 -0.9---------
2019-06-19 08:00:00 25.3 16.7 19.6--- 5920.0wxwxwxwx6wx---1015.4 989.9 -0.7---------
2019-06-19 07:00:00 22.9 17.8 19.4--- 7320.0wxwxwxwx3wx--31015.9 990.2 -0.4---------
2019-06-19 06:00:00 20.6 17.2 18.2 22.1 14.0 12 8120.0wxwxwxwx3wx--31016.5 990.5 -0.3- 0.012wx-----
2019-06-19 05:00:00 18.8 16.4 17.1--- 8620.0--3wx--31016.7 990.6 -0.3---------
2019-06-19 04:00:00 16.9 15.9 16.2--- 9420.0--3wx--31016.9 990.6 -0.7---------
2019-06-19 03:00:00 14.8 14.3 14.4--- 9712.0--1wx---1017.3 990.8 -0.8---------
2019-06-19 02:00:00 14.8 14.3 14.4--- 9717.0--1wx--11017.4 990.9 -0.6---------
2019-06-19 01:00:00 14.5 14.0 14.1--- 9712.0--1wx--11017.8 991.3 -0.4---------
2019-06-19 00:00:00 14.4 14.1 14.2--- 9810.0--1wx--11018.2 991.6 -0.4- 0.06------
2019-06-18 23:00:00 14.5 13.7 13.9--- 9512.0--1wx--11018.0 991.5 -0.5---------
2019-06-18 22:00:00 16.2 14.9 15.3--- 9218.0--1wx---1018.1 991.7 -0.2---------
2019-06-18 21:00:00 17.3 15.1 15.7--- 8720.0--1wx--11018.3 992.0 0.3---------
2019-06-18 20:00:00 18.3 15.2 16.2--- 8220.0--1wx--11018.2 992.0 0.2---------
2019-06-18 19:00:00 20.3 16.1 17.4--- 777.0--1wx--11017.9 991.9 -0.1---wx-----
2019-06-18 18:00:00 22.1 15.7 17.9 24.5 18.8- 6720.0wx-wx1wx--11017.6 991.7 -0.5--12------
2019-06-18 17:00:00 23.5 16.5 18.8--- 6520.0wxwxwxwx3wx---1017.5 991.8 -1.1---------
2019-06-18 16:00:00 24.5 16.0 18.9--- 5920.0wxwxwxwxwx3wx--31017.6 992.0 -1.3---------
2019-06-18 15:00:00 24.2 15.9 18.8--- 6020.0wxwxwxwxwx3wx---1017.9 992.2 -1.4---------
2019-06-18 14:00:00 23.2 16.5 18.7--- 6620.0wxwxwxwx4wx--41018.7 992.9 -1.1---------
2019-06-18 13:00:00 23.8 16.1 18.7--- 6220.0wxwxwxwx3wx--31019.0 993.3 -1.1---------
2019-06-18 12:00:00 23.9 15.7 18.5--- 6020.0wxwxwxwx3wx--31019.3 993.6 -1.1--6wx-w1--
2019-06-18 11:00:00 22.9 15.2 17.9--- 6220.0wxwxwxwx4wx--41019.8 994.0 -0.9---------
2019-06-18 10:00:00 22.5 15.3 17.8--- 6420.0wxwxwxwx3wx--31020.3 994.4 -0.3---------
2019-06-18 09:00:00 21.3 15.8 17.6--- 7120.0wxwxwxwx3wx--31020.7 994.7 -0.1---wx-w1--
2019-06-18 08:00:00 19.8 16.1 17.2--- 7920.0wxwxwxwx2wx--21021.0 994.9 0.5---------
2019-06-18 07:00:00 19.4 16.1 17.1--- 8120.0wxwxwx3wx---1020.9 994.7 0.5---wx---
2019-06-18 06:00:00 18.8 16.0 16.8 19.3 16.1 16 8420.0wxwxwx1wx--11021.0 994.8 0.8- 0.012wx-----
2019-06-18 05:00:00 18.0 15.8 16.4--- 8720.0--1wx--11020.7 994.4 0.4---------
2019-06-18 04:00:00 17.2 16.1 16.4--- 9320.0--0---01020.6 994.2 0.1---------
2019-06-18 03:00:00 16.4 15.4 15.7--- 9420.0--2wx--21020.4 994.0 -0.1---------
2019-06-18 02:00:00 16.4 15.4 15.7--- 9419.0--1wx---1020.4 994.0 -0.3---------
2019-06-18 01:00:00 16.7 15.2 15.6--- 9120.0--2wx---1020.5 994.1 -0.1---------
2019-06-18 00:00:00 16.4 15.3 15.6--- 9320.0--0---01020.5 994.1 -0.1- 0.06------
1.5 ms

 

Print Friendly, PDF & Email